Here is the Quick Look data you requested

The Data originates at the National Weather Service, and is made available here by the UAlbany Department of Atmospheric and Environmental Sciences

Surface Observations

KACK 142053Z 29011KT 10SM CLR M03/M08 A2975 RMK AO2 SLP075 T10281078 53040=
KAQW 142052Z AUTO 26012KT 10SM CLR M09/M17 A2983 RMK AO2 SLP112 T10891167 53041=
KBAF 142053Z 29011G17KT 10SM CLR M06/M16 A2983 RMK AO2 SLP110 T10561156 53043=
KBED 142056Z 29010KT 10SM FEW060 M04/M16 A2974 RMK AO2 SLP088 T10391156 53034=
KBOS 142054Z 29013KT 10SM FEW045 M02/M16 A2974 RMK AO2 SLP072 T10221156 53033=
KBVY 142053Z 28012G20KT 10SM CLR M03/M17 A2972 RMK AO2 SLP062 T10281172 53031=
KCEF 142056Z 28014KT 10SM FEW045 M06/M17 A2981 RMK AO2A PK WND 31031/1957
 PRESRR SLP104 T10561174 52041=
KCQX 142052Z AUTO 24006KT 10SM CLR M03/M08 A2974 RMK AO2 SLP072 T10331078 53037=
KEWB 142053Z 28010KT 10SM CLR M03/M12 A2975 RMK AO2 SLP075 T10331117 53033=
KFIT 142052Z AUTO 27013G21KT 10SM CLR M04/M14 A2975 RMK AO2 SLP081 T10391144
 53034=
KFMH 142055Z AUTO 28011G16KT 10SM CLR M03/M12 A2975 RMK AO2=
KHYA 142056Z 26005KT 10SM CLR M03/M09 A2973 RMK AO2 SLP069 T10331094 53037=
KLWM 142054Z 30012G21KT 10SM CLR M03/M17 A2975 RMK AO2 SLP074 T10281172 53034=
KMVY 142053Z 30010KT 10SM FEW038 M02/M07 A2975 RMK AO2 UPB1954E04 SLPNO P0000
 60000 T10221072 53036 $=
KORH 142054Z 27009G23KT 10SM CLR M06/M19 A2971 RMK AO2 SLP079 T10611189 53036=
KOWD 142053Z 28009G17KT 10SM CLR M02/M15 A2976 RMK AO2 SLP077 T10221150 53034=
KPSF 142054Z AUTO 29016G26KT 9SM CLR M09/M18 A2977 RMK AO2 PK WND 30027/2024
 SLP107 60000 T10941178 53038=
KPVC 142056Z AUTO 29015G23KT 10SM CLR M02/M10 A2973 RMK AO2 SLP066 6////
 T10221100 53031 FZRANO=
KPYM 142052Z AUTO 29008KT 10SM CLR M02/M13 A2974 RMK AO2 SLP071 T10171128 53031=
KTAN 142052Z AUTO 29010G19KT 10SM CLR M02/M14 A2975 RMK AO2 SLP074 T10221144
 53032=